sensor_id;sensor_type;location;lat;lon;timestamp;P1;durP1;ratioP1;P2;durP2;ratioP2
5343;SDS011;2694;48.954;8.928;2024-02-14T00:02:01;7.83;;;3.20;;
5343;SDS011;2694;48.954;8.928;2024-02-14T00:04:31;7.35;;;3.20;;
5343;SDS011;2694;48.954;8.928;2024-02-14T00:06:59;5.97;;;3.20;;
5343;SDS011;2694;48.954;8.928;2024-02-14T00:09:28;9.82;;;4.10;;
5343;SDS011;2694;48.954;8.928;2024-02-14T00:11:55;7.00;;;3.90;;
5343;SDS011;2694;48.954;8.928;2024-02-14T00:14:24;8.15;;;3.60;;
5343;SDS011;2694;48.954;8.928;2024-02-14T00:16:52;9.55;;;4.20;;
5343;SDS011;2694;48.954;8.928;2024-02-14T00:19:22;9.05;;;3.90;;
5343;SDS011;2694;48.954;8.928;2024-02-14T00:21:50;8.25;;;3.70;;
5343;SDS011;2694;48.954;8.928;2024-02-14T00:24:17;7.78;;;3.85;;
5343;SDS011;2694;48.954;8.928;2024-02-14T00:26:46;9.70;;;3.90;;
5343;SDS011;2694;48.954;8.928;2024-02-14T00:29:14;8.30;;;4.30;;
5343;SDS011;2694;48.954;8.928;2024-02-14T00:31:42;11.07;;;4.10;;
5343;SDS011;2694;48.954;8.928;2024-02-14T00:34:10;9.40;;;4.35;;
5343;SDS011;2694;48.954;8.928;2024-02-14T00:36:39;8.80;;;4.00;;
5343;SDS011;2694;48.954;8.928;2024-02-14T00:39:07;7.22;;;4.00;;
5343;SDS011;2694;48.954;8.928;2024-02-14T00:41:36;10.90;;;4.38;;
5343;SDS011;2694;48.954;8.928;2024-02-14T00:44:04;8.45;;;3.40;;
5343;SDS011;2694;48.954;8.928;2024-02-14T00:46:32;8.30;;;3.10;;
5343;SDS011;2694;48.954;8.928;2024-02-14T00:49:00;7.38;;;3.55;;
5343;SDS011;2694;48.954;8.928;2024-02-14T00:51:28;7.15;;;3.30;;
5343;SDS011;2694;48.954;8.928;2024-02-14T00:54:01;10.75;;;4.07;;
5343;SDS011;2694;48.954;8.928;2024-02-14T00:56:30;11.02;;;4.20;;
5343;SDS011;2694;48.954;8.928;2024-02-14T00:58:58;10.18;;;3.60;;
5343;SDS011;2694;48.954;8.928;2024-02-14T01:01:27;9.35;;;3.70;;
5343;SDS011;2694;48.954;8.928;2024-02-14T01:03:55;8.93;;;4.10;;
5343;SDS011;2694;48.954;8.928;2024-02-14T01:06:21;15.45;;;6.95;;
5343;SDS011;2694;48.954;8.928;2024-02-14T01:08:51;13.30;;;5.90;;
5343;SDS011;2694;48.954;8.928;2024-02-14T01:11:21;13.50;;;6.30;;
5343;SDS011;2694;48.954;8.928;2024-02-14T01:13:49;13.60;;;6.20;;
5343;SDS011;2694;48.954;8.928;2024-02-14T01:16:18;12.52;;;5.13;;
5343;SDS011;2694;48.954;8.928;2024-02-14T01:18:46;9.63;;;4.63;;
5343;SDS011;2694;48.954;8.928;2024-02-14T01:21:15;13.38;;;4.90;;
5343;SDS011;2694;48.954;8.928;2024-02-14T01:23:43;7.28;;;4.00;;
5343;SDS011;2694;48.954;8.928;2024-02-14T01:26:11;9.10;;;3.67;;
5343;SDS011;2694;48.954;8.928;2024-02-14T01:28:41;13.25;;;4.10;;
5343;SDS011;2694;48.954;8.928;2024-02-14T01:31:10;9.07;;;4.10;;
5343;SDS011;2694;48.954;8.928;2024-02-14T01:33:39;9.35;;;4.00;;
5343;SDS011;2694;48.954;8.928;2024-02-14T01:36:07;9.27;;;4.10;;
5343;SDS011;2694;48.954;8.928;2024-02-14T01:38:35;7.80;;;3.70;;
5343;SDS011;2694;48.954;8.928;2024-02-14T01:41:05;7.78;;;3.90;;
5343;SDS011;2694;48.954;8.928;2024-02-14T01:43:32;13.33;;;4.20;;
5343;SDS011;2694;48.954;8.928;2024-02-14T01:46:04;12.98;;;3.72;;
5343;SDS011;2694;48.954;8.928;2024-02-14T01:48:34;8.40;;;3.37;;
5343;SDS011;2694;48.954;8.928;2024-02-14T01:51:02;7.22;;;4.13;;
5343;SDS011;2694;48.954;8.928;2024-02-14T01:53:33;8.13;;;4.00;;
5343;SDS011;2694;48.954;8.928;2024-02-14T01:56:04;13.05;;;4.57;;
5343;SDS011;2694;48.954;8.928;2024-02-14T01:58:32;8.45;;;4.40;;
5343;SDS011;2694;48.954;8.928;2024-02-14T02:01:05;8.55;;;4.20;;
5343;SDS011;2694;48.954;8.928;2024-02-14T02:03:33;10.50;;;4.25;;
5343;SDS011;2694;48.954;8.928;2024-02-14T02:06:03;16.00;;;4.90;;
5343;SDS011;2694;48.954;8.928;2024-02-14T02:08:33;6.97;;;4.35;;
5343;SDS011;2694;48.954;8.928;2024-02-14T02:11:02;10.43;;;4.70;;
5343;SDS011;2694;48.954;8.928;2024-02-14T02:13:31;11.90;;;4.43;;
5343;SDS011;2694;48.954;8.928;2024-02-14T02:16:00;10.00;;;4.50;;
5343;SDS011;2694;48.954;8.928;2024-02-14T02:18:32;11.32;;;4.93;;
5343;SDS011;2694;48.954;8.928;2024-02-14T02:21:00;7.70;;;4.65;;
5343;SDS011;2694;48.954;8.928;2024-02-14T02:23:31;9.37;;;4.50;;
5343;SDS011;2694;48.954;8.928;2024-02-14T02:25:59;10.88;;;4.25;;
5343;SDS011;2694;48.954;8.928;2024-02-14T02:28:27;9.57;;;4.35;;
5343;SDS011;2694;48.954;8.928;2024-02-14T02:30:55;8.93;;;4.50;;
5343;SDS011;2694;48.954;8.928;2024-02-14T02:33:23;10.85;;;4.60;;
5343;SDS011;2694;48.954;8.928;2024-02-14T02:35:51;9.00;;;3.97;;
5343;SDS011;2694;48.954;8.928;2024-02-14T02:38:19;11.57;;;4.53;;
5343;SDS011;2694;48.954;8.928;2024-02-14T02:40:50;8.77;;;3.90;;
5343;SDS011;2694;48.954;8.928;2024-02-14T02:43:17;12.23;;;5.50;;
5343;SDS011;2694;48.954;8.928;2024-02-14T02:45:45;9.18;;;5.22;;
5343;SDS011;2694;48.954;8.928;2024-02-14T02:48:13;12.23;;;4.95;;
5343;SDS011;2694;48.954;8.928;2024-02-14T02:50:41;7.63;;;4.20;;
5343;SDS011;2694;48.954;8.928;2024-02-14T02:53:10;9.52;;;4.63;;
5343;SDS011;2694;48.954;8.928;2024-02-14T02:55:39;8.05;;;3.95;;
5343;SDS011;2694;48.954;8.928;2024-02-14T02:58:08;11.65;;;3.83;;
5343;SDS011;2694;48.954;8.928;2024-02-14T03:00:37;7.45;;;4.10;;
5343;SDS011;2694;48.954;8.928;2024-02-14T03:03:07;8.13;;;4.20;;
5343;SDS011;2694;48.954;8.928;2024-02-14T03:05:37;8.40;;;4.00;;
5343;SDS011;2694;48.954;8.928;2024-02-14T03:08:05;6.15;;;3.10;;
5343;SDS011;2694;48.954;8.928;2024-02-14T03:10:34;10.30;;;4.00;;
5343;SDS011;2694;48.954;8.928;2024-02-14T03:13:02;8.48;;;4.25;;
5343;SDS011;2694;48.954;8.928;2024-02-14T03:15:32;8.43;;;4.15;;
5343;SDS011;2694;48.954;8.928;2024-02-14T03:18:00;9.95;;;4.40;;
5343;SDS011;2694;48.954;8.928;2024-02-14T03:20:29;12.47;;;4.10;;
5343;SDS011;2694;48.954;8.928;2024-02-14T03:22:58;7.35;;;4.00;;
5343;SDS011;2694;48.954;8.928;2024-02-14T03:25:26;6.10;;;3.10;;
5343;SDS011;2694;48.954;8.928;2024-02-14T03:27:54;11.20;;;4.20;;
5343;SDS011;2694;48.954;8.928;2024-02-14T03:30:24;14.13;;;4.50;;
5343;SDS011;2694;48.954;8.928;2024-02-14T03:32:56;9.23;;;4.20;;
5343;SDS011;2694;48.954;8.928;2024-02-14T03:35:24;6.90;;;3.90;;
5343;SDS011;2694;48.954;8.928;2024-02-14T03:37:53;9.15;;;4.22;;
5343;SDS011;2694;48.954;8.928;2024-02-14T03:40:22;10.85;;;4.97;;
5343;SDS011;2694;48.954;8.928;2024-02-14T03:42:50;11.43;;;4.40;;
5343;SDS011;2694;48.954;8.928;2024-02-14T03:45:18;8.32;;;4.22;;
5343;SDS011;2694;48.954;8.928;2024-02-14T03:47:47;10.88;;;4.93;;
5343;SDS011;2694;48.954;8.928;2024-02-14T03:50:16;10.90;;;4.30;;
5343;SDS011;2694;48.954;8.928;2024-02-14T03:52:45;8.20;;;4.20;;
5343;SDS011;2694;48.954;8.928;2024-02-14T03:55:14;12.43;;;4.00;;
5343;SDS011;2694;48.954;8.928;2024-02-14T03:57:44;8.30;;;4.15;;
5343;SDS011;2694;48.954;8.928;2024-02-14T04:00:13;10.73;;;4.03;;
5343;SDS011;2694;48.954;8.928;2024-02-14T04:02:42;10.90;;;4.68;;
5343;SDS011;2694;48.954;8.928;2024-02-14T04:05:09;9.00;;;4.10;;
5343;SDS011;2694;48.954;8.928;2024-02-14T04:07:39;9.60;;;3.87;;
5343;SDS011;2694;48.954;8.928;2024-02-14T04:10:11;8.70;;;4.10;;
5343;SDS011;2694;48.954;8.928;2024-02-14T04:12:39;9.52;;;4.57;;
5343;SDS011;2694;48.954;8.928;2024-02-14T04:15:08;8.98;;;3.92;;
5343;SDS011;2694;48.954;8.928;2024-02-14T04:17:35;8.45;;;4.00;;
5343;SDS011;2694;48.954;8.928;2024-02-14T04:20:04;16.75;;;4.43;;
5343;SDS011;2694;48.954;8.928;2024-02-14T04:22:32;9.90;;;3.50;;
5343;SDS011;2694;48.954;8.928;2024-02-14T04:25:02;9.85;;;3.90;;
5343;SDS011;2694;48.954;8.928;2024-02-14T04:27:31;9.90;;;4.60;;
5343;SDS011;2694;48.954;8.928;2024-02-14T04:29:59;11.47;;;4.13;;
5343;SDS011;2694;48.954;8.928;2024-02-14T04:32:28;8.27;;;4.17;;
5343;SDS011;2694;48.954;8.928;2024-02-14T04:34:56;9.00;;;3.85;;
5343;SDS011;2694;48.954;8.928;2024-02-14T04:37:24;8.85;;;4.10;;
5343;SDS011;2694;48.954;8.928;2024-02-14T04:39:52;9.65;;;3.78;;
5343;SDS011;2694;48.954;8.928;2024-02-14T04:42:22;9.77;;;4.10;;
5343;SDS011;2694;48.954;8.928;2024-02-14T04:44:49;7.20;;;3.70;;
5343;SDS011;2694;48.954;8.928;2024-02-14T04:47:15;9.00;;;4.13;;
5343;SDS011;2694;48.954;8.928;2024-02-14T04:49:43;7.47;;;4.68;;
5343;SDS011;2694;48.954;8.928;2024-02-14T04:52:12;10.93;;;4.03;;
5343;SDS011;2694;48.954;8.928;2024-02-14T04:54:40;7.47;;;3.60;;
5343;SDS011;2694;48.954;8.928;2024-02-14T04:57:08;9.52;;;4.50;;
5343;SDS011;2694;48.954;8.928;2024-02-14T04:59:38;11.05;;;4.10;;
5343;SDS011;2694;48.954;8.928;2024-02-14T05:02:06;10.50;;;3.80;;
5343;SDS011;2694;48.954;8.928;2024-02-14T05:04:33;10.18;;;4.20;;
5343;SDS011;2694;48.954;8.928;2024-02-14T05:07:04;10.52;;;4.05;;
5343;SDS011;2694;48.954;8.928;2024-02-14T05:09:32;8.38;;;3.95;;
5343;SDS011;2694;48.954;8.928;2024-02-14T05:12:00;10.48;;;4.50;;
5343;SDS011;2694;48.954;8.928;2024-02-14T05:14:30;13.48;;;5.57;;
5343;SDS011;2694;48.954;8.928;2024-02-14T05:16:59;9.27;;;4.43;;
5343;SDS011;2694;48.954;8.928;2024-02-14T05:19:27;7.72;;;4.30;;
5343;SDS011;2694;48.954;8.928;2024-02-14T05:21:56;8.10;;;4.07;;
5343;SDS011;2694;48.954;8.928;2024-02-14T05:24:24;6.80;;;3.72;;
5343;SDS011;2694;48.954;8.928;2024-02-14T05:26:53;10.43;;;3.80;;
5343;SDS011;2694;48.954;8.928;2024-02-14T05:29:21;7.13;;;3.60;;
5343;SDS011;2694;48.954;8.928;2024-02-14T05:31:48;9.10;;;3.90;;
5343;SDS011;2694;48.954;8.928;2024-02-14T05:34:19;10.23;;;4.70;;
5343;SDS011;2694;48.954;8.928;2024-02-14T05:36:48;8.95;;;3.45;;
5343;SDS011;2694;48.954;8.928;2024-02-14T05:39:15;10.90;;;3.85;;
5343;SDS011;2694;48.954;8.928;2024-02-14T05:41:44;7.32;;;3.90;;
5343;SDS011;2694;48.954;8.928;2024-02-14T05:44:11;6.38;;;3.50;;
5343;SDS011;2694;48.954;8.928;2024-02-14T05:46:38;8.25;;;3.85;;
5343;SDS011;2694;48.954;8.928;2024-02-14T05:49:06;10.73;;;3.65;;
5343;SDS011;2694;48.954;8.928;2024-02-14T05:51:36;7.35;;;3.50;;
5343;SDS011;2694;48.954;8.928;2024-02-14T05:54:04;8.52;;;3.40;;
5343;SDS011;2694;48.954;8.928;2024-02-14T05:56:33;5.60;;;3.47;;
5343;SDS011;2694;48.954;8.928;2024-02-14T05:59:01;8.93;;;3.80;;
5343;SDS011;2694;48.954;8.928;2024-02-14T06:01:29;6.70;;;3.30;;
5343;SDS011;2694;48.954;8.928;2024-02-14T06:03:56;7.53;;;3.30;;
5343;SDS011;2694;48.954;8.928;2024-02-14T06:06:24;7.18;;;3.05;;
5343;SDS011;2694;48.954;8.928;2024-02-14T06:08:54;8.23;;;3.60;;
5343;SDS011;2694;48.954;8.928;2024-02-14T06:11:24;5.13;;;2.90;;
5343;SDS011;2694;48.954;8.928;2024-02-14T06:13:52;7.15;;;3.00;;
5343;SDS011;2694;48.954;8.928;2024-02-14T06:16:20;11.25;;;3.38;;
5343;SDS011;2694;48.954;8.928;2024-02-14T06:18:48;6.82;;;3.15;;
5343;SDS011;2694;48.954;8.928;2024-02-14T06:21:16;7.65;;;3.10;;
5343;SDS011;2694;48.954;8.928;2024-02-14T06:23:46;5.80;;;2.90;;
5343;SDS011;2694;48.954;8.928;2024-02-14T06:26:15;6.63;;;3.00;;
5343;SDS011;2694;48.954;8.928;2024-02-14T06:28:44;6.60;;;3.70;;
5343;SDS011;2694;48.954;8.928;2024-02-14T06:31:12;7.95;;;3.50;;
5343;SDS011;2694;48.954;8.928;2024-02-14T06:33:40;6.80;;;3.45;;
5343;SDS011;2694;48.954;8.928;2024-02-14T06:36:10;6.70;;;3.50;;
5343;SDS011;2694;48.954;8.928;2024-02-14T06:38:38;11.38;;;4.10;;
5343;SDS011;2694;48.954;8.928;2024-02-14T06:41:06;6.93;;;3.25;;
5343;SDS011;2694;48.954;8.928;2024-02-14T06:43:35;6.50;;;3.17;;
5343;SDS011;2694;48.954;8.928;2024-02-14T06:46:04;7.95;;;3.03;;
5343;SDS011;2694;48.954;8.928;2024-02-14T06:48:35;10.52;;;4.03;;
5343;SDS011;2694;48.954;8.928;2024-02-14T06:51:03;8.77;;;3.58;;
5343;SDS011;2694;48.954;8.928;2024-02-14T06:53:31;8.55;;;3.45;;
5343;SDS011;2694;48.954;8.928;2024-02-14T06:55:59;7.30;;;3.55;;
5343;SDS011;2694;48.954;8.928;2024-02-14T06:58:27;9.50;;;3.70;;
5343;SDS011;2694;48.954;8.928;2024-02-14T07:00:57;10.30;;;4.00;;
5343;SDS011;2694;48.954;8.928;2024-02-14T07:03:26;11.32;;;4.85;;
5343;SDS011;2694;48.954;8.928;2024-02-14T07:05:54;12.93;;;4.75;;
5343;SDS011;2694;48.954;8.928;2024-02-14T07:08:22;11.43;;;4.97;;
5343;SDS011;2694;48.954;8.928;2024-02-14T07:10:52;11.90;;;4.90;;
5343;SDS011;2694;48.954;8.928;2024-02-14T07:13:21;11.40;;;4.80;;
5343;SDS011;2694;48.954;8.928;2024-02-14T07:15:47;8.38;;;4.40;;
5343;SDS011;2694;48.954;8.928;2024-02-14T07:18:16;13.02;;;5.28;;
5343;SDS011;2694;48.954;8.928;2024-02-14T07:20:45;10.13;;;5.30;;
5343;SDS011;2694;48.954;8.928;2024-02-14T07:23:12;11.52;;;4.70;;
5343;SDS011;2694;48.954;8.928;2024-02-14T07:25:41;12.53;;;5.20;;
5343;SDS011;2694;48.954;8.928;2024-02-14T07:28:09;11.98;;;4.88;;
5343;SDS011;2694;48.954;8.928;2024-02-14T07:30:37;15.85;;;4.60;;
5343;SDS011;2694;48.954;8.928;2024-02-14T07:33:05;12.38;;;5.00;;
5343;SDS011;2694;48.954;8.928;2024-02-14T07:35:36;11.82;;;4.90;;
5343;SDS011;2694;48.954;8.928;2024-02-14T07:38:04;11.55;;;6.15;;
5343;SDS011;2694;48.954;8.928;2024-02-14T07:40:32;15.07;;;6.28;;
5343;SDS011;2694;48.954;8.928;2024-02-14T07:43:00;15.75;;;6.55;;
5343;SDS011;2694;48.954;8.928;2024-02-14T07:45:27;12.43;;;8.07;;
5343;SDS011;2694;48.954;8.928;2024-02-14T07:47:54;18.38;;;7.82;;
5343;SDS011;2694;48.954;8.928;2024-02-14T07:50:22;15.07;;;7.68;;
5343;SDS011;2694;48.954;8.928;2024-02-14T07:52:52;14.07;;;6.85;;
5343;SDS011;2694;48.954;8.928;2024-02-14T07:55:20;12.48;;;6.75;;
5343;SDS011;2694;48.954;8.928;2024-02-14T07:57:49;13.13;;;5.70;;
5343;SDS011;2694;48.954;8.928;2024-02-14T08:00:16;12.02;;;5.60;;
5343;SDS011;2694;48.954;8.928;2024-02-14T08:02:49;9.45;;;5.20;;
5343;SDS011;2694;48.954;8.928;2024-02-14T08:05:17;12.75;;;5.65;;
5343;SDS011;2694;48.954;8.928;2024-02-14T08:07:45;11.93;;;5.40;;
5343;SDS011;2694;48.954;8.928;2024-02-14T08:10:15;15.63;;;6.13;;
5343;SDS011;2694;48.954;8.928;2024-02-14T08:12:43;16.00;;;5.70;;
5343;SDS011;2694;48.954;8.928;2024-02-14T08:15:10;15.70;;;7.10;;
5343;SDS011;2694;48.954;8.928;2024-02-14T08:17:38;18.85;;;7.90;;
5343;SDS011;2694;48.954;8.928;2024-02-14T08:20:07;12.60;;;5.90;;
5343;SDS011;2694;48.954;8.928;2024-02-14T08:22:36;16.00;;;6.05;;
5343;SDS011;2694;48.954;8.928;2024-02-14T08:25:04;50.95;;;10.30;;
5343;SDS011;2694;48.954;8.928;2024-02-14T08:27:34;18.70;;;5.95;;
5343;SDS011;2694;48.954;8.928;2024-02-14T08:30:03;13.43;;;6.75;;
5343;SDS011;2694;48.954;8.928;2024-02-14T08:32:33;16.58;;;5.72;;
5343;SDS011;2694;48.954;8.928;2024-02-14T08:35:02;11.90;;;6.00;;
5343;SDS011;2694;48.954;8.928;2024-02-14T08:37:30;14.88;;;6.07;;
5343;SDS011;2694;48.954;8.928;2024-02-14T08:39:58;11.75;;;5.30;;
5343;SDS011;2694;48.954;8.928;2024-02-14T08:42:26;10.15;;;5.10;;
5343;SDS011;2694;48.954;8.928;2024-02-14T08:44:55;9.88;;;4.40;;
5343;SDS011;2694;48.954;8.928;2024-02-14T08:47:23;6.97;;;2.95;;
5343;SDS011;2694;48.954;8.928;2024-02-14T08:49:52;8.65;;;2.65;;
5343;SDS011;2694;48.954;8.928;2024-02-14T08:52:20;9.25;;;2.72;;
5343;SDS011;2694;48.954;8.928;2024-02-14T08:54:47;6.88;;;2.80;;
5343;SDS011;2694;48.954;8.928;2024-02-14T08:57:15;11.32;;;4.80;;
5343;SDS011;2694;48.954;8.928;2024-02-14T08:59:44;9.98;;;3.67;;
5343;SDS011;2694;48.954;8.928;2024-02-14T09:02:16;11.55;;;3.90;;
5343;SDS011;2694;48.954;8.928;2024-02-14T09:04:43;19.00;;;3.80;;
5343;SDS011;2694;48.954;8.928;2024-02-14T09:07:11;11.15;;;3.15;;
5343;SDS011;2694;48.954;8.928;2024-02-14T09:09:39;7.43;;;3.10;;
5343;SDS011;2694;48.954;8.928;2024-02-14T09:12:08;7.20;;;2.77;;
5343;SDS011;2694;48.954;8.928;2024-02-14T09:14:35;7.25;;;3.40;;
5343;SDS011;2694;48.954;8.928;2024-02-14T09:17:01;13.93;;;3.88;;
5343;SDS011;2694;48.954;8.928;2024-02-14T09:19:31;9.93;;;3.45;;
5343;SDS011;2694;48.954;8.928;2024-02-14T09:21:59;16.53;;;4.57;;
5343;SDS011;2694;48.954;8.928;2024-02-14T09:24:28;15.98;;;4.63;;
5343;SDS011;2694;48.954;8.928;2024-02-14T09:26:56;16.60;;;4.72;;
5343;SDS011;2694;48.954;8.928;2024-02-14T09:29:22;18.57;;;3.93;;
5343;SDS011;2694;48.954;8.928;2024-02-14T09:31:51;12.27;;;3.50;;
5343;SDS011;2694;48.954;8.928;2024-02-14T09:34:19;7.20;;;2.80;;
5343;SDS011;2694;48.954;8.928;2024-02-14T09:36:48;8.23;;;3.08;;
5343;SDS011;2694;48.954;8.928;2024-02-14T09:39:18;5.65;;;2.70;;
5343;SDS011;2694;48.954;8.928;2024-02-14T09:41:48;8.52;;;2.65;;
5343;SDS011;2694;48.954;8.928;2024-02-14T09:44:20;6.05;;;2.72;;
5343;SDS011;2694;48.954;8.928;2024-02-14T09:46:48;7.85;;;2.40;;
5343;SDS011;2694;48.954;8.928;2024-02-14T09:49:17;9.10;;;2.07;;
5343;SDS011;2694;48.954;8.928;2024-02-14T09:51:46;21.80;;;4.60;;
5343;SDS011;2694;48.954;8.928;2024-02-14T09:54:15;16.30;;;3.60;;
5343;SDS011;2694;48.954;8.928;2024-02-14T09:56:47;9.10;;;2.70;;
5343;SDS011;2694;48.954;8.928;2024-02-14T09:59:19;7.83;;;2.77;;
5343;SDS011;2694;48.954;8.928;2024-02-14T10:01:48;8.55;;;3.00;;
5343;SDS011;2694;48.954;8.928;2024-02-14T10:04:18;16.95;;;3.10;;
5343;SDS011;2694;48.954;8.928;2024-02-14T10:06:48;8.05;;;2.78;;
5343;SDS011;2694;48.954;8.928;2024-02-14T10:09:19;15.27;;;3.13;;
5343;SDS011;2694;48.954;8.928;2024-02-14T10:11:46;6.37;;;2.30;;
5343;SDS011;2694;48.954;8.928;2024-02-14T10:14:15;9.63;;;2.47;;
5343;SDS011;2694;48.954;8.928;2024-02-14T10:16:42;6.50;;;2.25;;
5343;SDS011;2694;48.954;8.928;2024-02-14T10:19:15;8.55;;;2.60;;
5343;SDS011;2694;48.954;8.928;2024-02-14T10:21:43;6.13;;;2.40;;
5343;SDS011;2694;48.954;8.928;2024-02-14T10:24:23;9.80;;;1.90;;
5343;SDS011;2694;48.954;8.928;2024-02-14T10:26:52;17.95;;;3.60;;
5343;SDS011;2694;48.954;8.928;2024-02-14T10:29:20;13.80;;;2.75;;
5343;SDS011;2694;48.954;8.928;2024-02-14T10:31:48;19.83;;;3.42;;
5343;SDS011;2694;48.954;8.928;2024-02-14T10:34:16;10.43;;;2.50;;
5343;SDS011;2694;48.954;8.928;2024-02-14T10:36:46;5.50;;;1.70;;
5343;SDS011;2694;48.954;8.928;2024-02-14T10:39:16;4.20;;;1.70;;
5343;SDS011;2694;48.954;8.928;2024-02-14T10:41:48;5.15;;;1.60;;
5343;SDS011;2694;48.954;8.928;2024-02-14T10:44:16;4.20;;;1.60;;
5343;SDS011;2694;48.954;8.928;2024-02-14T10:46:44;3.05;;;1.40;;
5343;SDS011;2694;48.954;8.928;2024-02-14T10:49:13;5.25;;;1.90;;
5343;SDS011;2694;48.954;8.928;2024-02-14T10:51:42;7.05;;;1.98;;
5343;SDS011;2694;48.954;8.928;2024-02-14T10:54:13;6.88;;;1.77;;
5343;SDS011;2694;48.954;8.928;2024-02-14T10:56:45;5.63;;;1.60;;
5343;SDS011;2694;48.954;8.928;2024-02-14T10:59:19;3.47;;;1.20;;
5343;SDS011;2694;48.954;8.928;2024-02-14T11:01:49;6.75;;;1.40;;
5343;SDS011;2694;48.954;8.928;2024-02-14T11:04:17;2.97;;;1.33;;
5343;SDS011;2694;48.954;8.928;2024-02-14T11:06:47;3.97;;;1.20;;
5343;SDS011;2694;48.954;8.928;2024-02-14T11:09:16;5.40;;;1.42;;
5343;SDS011;2694;48.954;8.928;2024-02-14T11:11:44;9.05;;;1.50;;
5343;SDS011;2694;48.954;8.928;2024-02-14T11:14:15;3.92;;;1.73;;
5343;SDS011;2694;48.954;8.928;2024-02-14T11:16:46;8.10;;;1.50;;
5343;SDS011;2694;48.954;8.928;2024-02-14T11:19:14;7.65;;;1.92;;
5343;SDS011;2694;48.954;8.928;2024-02-14T11:21:45;5.70;;;1.63;;
5343;SDS011;2694;48.954;8.928;2024-02-14T11:24:15;7.37;;;2.00;;
5343;SDS011;2694;48.954;8.928;2024-02-14T11:26:49;4.00;;;1.30;;
5343;SDS011;2694;48.954;8.928;2024-02-14T11:29:20;7.17;;;1.80;;
5343;SDS011;2694;48.954;8.928;2024-02-14T11:31:48;13.98;;;4.07;;
5343;SDS011;2694;48.954;8.928;2024-02-14T11:34:25;4.30;;;1.63;;
5343;SDS011;2694;48.954;8.928;2024-02-14T11:36:52;8.20;;;3.00;;
5343;SDS011;2694;48.954;8.928;2024-02-14T11:39:20;2.65;;;1.20;;
5343;SDS011;2694;48.954;8.928;2024-02-14T11:41:48;5.47;;;1.40;;
5343;SDS011;2694;48.954;8.928;2024-02-14T11:44:16;2.88;;;1.13;;
5343;SDS011;2694;48.954;8.928;2024-02-14T11:46:48;4.10;;;1.35;;
5343;SDS011;2694;48.954;8.928;2024-02-14T11:49:16;3.92;;;1.15;;
5343;SDS011;2694;48.954;8.928;2024-02-14T11:51:44;4.60;;;0.90;;
5343;SDS011;2694;48.954;8.928;2024-02-14T11:54:12;2.70;;;1.00;;
5343;SDS011;2694;48.954;8.928;2024-02-14T11:56:41;3.10;;;0.80;;
5343;SDS011;2694;48.954;8.928;2024-02-14T11:59:09;2.22;;;1.00;;
5343;SDS011;2694;48.954;8.928;2024-02-14T12:01:38;2.70;;;0.80;;
5343;SDS011;2694;48.954;8.928;2024-02-14T12:04:07;3.20;;;0.75;;
5343;SDS011;2694;48.954;8.928;2024-02-14T12:06:35;2.60;;;0.70;;
5343;SDS011;2694;48.954;8.928;2024-02-14T12:09:04;3.90;;;0.90;;
5343;SDS011;2694;48.954;8.928;2024-02-14T12:11:35;2.45;;;0.70;;
5343;SDS011;2694;48.954;8.928;2024-02-14T12:14:03;1.35;;;0.40;;
5343;SDS011;2694;48.954;8.928;2024-02-14T12:16:33;3.13;;;1.30;;
5343;SDS011;2694;48.954;8.928;2024-02-14T12:19:08;8.18;;;2.92;;
5343;SDS011;2694;48.954;8.928;2024-02-14T12:21:41;2.35;;;1.40;;
5343;SDS011;2694;48.954;8.928;2024-02-14T12:24:11;2.10;;;0.93;;
5343;SDS011;2694;48.954;8.928;2024-02-14T12:26:41;11.00;;;1.10;;
5343;SDS011;2694;48.954;8.928;2024-02-14T12:29:10;1.90;;;0.70;;
5343;SDS011;2694;48.954;8.928;2024-02-14T12:31:39;2.70;;;1.10;;
5343;SDS011;2694;48.954;8.928;2024-02-14T12:34:11;3.05;;;0.90;;
5343;SDS011;2694;48.954;8.928;2024-02-14T12:36:39;2.40;;;0.70;;
5343;SDS011;2694;48.954;8.928;2024-02-14T12:39:07;3.17;;;0.60;;
5343;SDS011;2694;48.954;8.928;2024-02-14T12:41:39;2.55;;;0.70;;
5343;SDS011;2694;48.954;8.928;2024-02-14T12:44:08;1.70;;;0.40;;
5343;SDS011;2694;48.954;8.928;2024-02-14T12:46:36;4.70;;;0.88;;
5343;SDS011;2694;48.954;8.928;2024-02-14T12:49:05;6.10;;;0.70;;
5343;SDS011;2694;48.954;8.928;2024-02-14T12:51:36;1.50;;;0.50;;
5343;SDS011;2694;48.954;8.928;2024-02-14T12:54:05;2.70;;;0.60;;
5343;SDS011;2694;48.954;8.928;2024-02-14T12:56:33;12.57;;;1.48;;
5343;SDS011;2694;48.954;8.928;2024-02-14T12:59:00;3.42;;;0.50;;
5343;SDS011;2694;48.954;8.928;2024-02-14T13:01:28;2.30;;;0.70;;
5343;SDS011;2694;48.954;8.928;2024-02-14T13:03:56;3.90;;;0.60;;
5343;SDS011;2694;48.954;8.928;2024-02-14T13:06:26;1.27;;;0.50;;
5343;SDS011;2694;48.954;8.928;2024-02-14T13:08:55;2.08;;;0.50;;
5343;SDS011;2694;48.954;8.928;2024-02-14T13:11:22;1.45;;;0.47;;
5343;SDS011;2694;48.954;8.928;2024-02-14T13:13:49;0.88;;;0.40;;
5343;SDS011;2694;48.954;8.928;2024-02-14T13:16:17;2.10;;;0.43;;
5343;SDS011;2694;48.954;8.928;2024-02-14T13:18:44;1.30;;;0.40;;
5343;SDS011;2694;48.954;8.928;2024-02-14T13:21:12;2.90;;;0.70;;
5343;SDS011;2694;48.954;8.928;2024-02-14T13:23:40;1.70;;;0.40;;
5343;SDS011;2694;48.954;8.928;2024-02-14T13:26:10;3.30;;;0.50;;
5343;SDS011;2694;48.954;8.928;2024-02-14T13:28:39;1.20;;;0.50;;
5343;SDS011;2694;48.954;8.928;2024-02-14T13:31:08;0.85;;;0.30;;
5343;SDS011;2694;48.954;8.928;2024-02-14T13:33:37;1.50;;;0.60;;
5343;SDS011;2694;48.954;8.928;2024-02-14T13:36:05;0.83;;;0.30;;
5343;SDS011;2694;48.954;8.928;2024-02-14T13:38:33;1.00;;;0.30;;
5343;SDS011;2694;48.954;8.928;2024-02-14T13:41:01;0.80;;;0.30;;
5343;SDS011;2694;48.954;8.928;2024-02-14T13:43:29;1.30;;;0.30;;
5343;SDS011;2694;48.954;8.928;2024-02-14T13:45:56;2.00;;;0.30;;
5343;SDS011;2694;48.954;8.928;2024-02-14T13:48:25;1.30;;;0.30;;
5343;SDS011;2694;48.954;8.928;2024-02-14T13:50:53;0.93;;;0.30;;
5343;SDS011;2694;48.954;8.928;2024-02-14T13:53:21;1.77;;;0.60;;
5343;SDS011;2694;48.954;8.928;2024-02-14T13:55:49;3.53;;;0.60;;
5343;SDS011;2694;48.954;8.928;2024-02-14T13:58:18;3.85;;;0.68;;
5343;SDS011;2694;48.954;8.928;2024-02-14T14:00:47;2.30;;;0.47;;
5343;SDS011;2694;48.954;8.928;2024-02-14T14:03:15;2.00;;;0.40;;
5343;SDS011;2694;48.954;8.928;2024-02-14T14:05:42;3.58;;;0.80;;
5343;SDS011;2694;48.954;8.928;2024-02-14T14:08:11;8.15;;;0.88;;
5343;SDS011;2694;48.954;8.928;2024-02-14T14:10:39;2.10;;;0.70;;
5343;SDS011;2694;48.954;8.928;2024-02-14T14:13:09;2.90;;;0.80;;
5343;SDS011;2694;48.954;8.928;2024-02-14T14:15:37;2.90;;;0.90;;
5343;SDS011;2694;48.954;8.928;2024-02-14T14:18:06;3.00;;;1.10;;
5343;SDS011;2694;48.954;8.928;2024-02-14T14:20:34;2.22;;;1.10;;
5343;SDS011;2694;48.954;8.928;2024-02-14T14:23:02;3.50;;;0.70;;
5343;SDS011;2694;48.954;8.928;2024-02-14T14:25:31;1.40;;;0.40;;
5343;SDS011;2694;48.954;8.928;2024-02-14T14:27:57;1.10;;;0.40;;
5343;SDS011;2694;48.954;8.928;2024-02-14T14:30:25;2.42;;;0.50;;
5343;SDS011;2694;48.954;8.928;2024-02-14T14:32:53;1.00;;;0.50;;
5343;SDS011;2694;48.954;8.928;2024-02-14T14:35:23;1.65;;;0.40;;
5343;SDS011;2694;48.954;8.928;2024-02-14T14:37:51;2.10;;;0.80;;
5343;SDS011;2694;48.954;8.928;2024-02-14T14:40:20;4.20;;;1.00;;
5343;SDS011;2694;48.954;8.928;2024-02-14T14:42:49;5.40;;;0.50;;
5343;SDS011;2694;48.954;8.928;2024-02-14T14:45:17;1.80;;;0.40;;
5343;SDS011;2694;48.954;8.928;2024-02-14T14:47:45;1.90;;;0.60;;
5343;SDS011;2694;48.954;8.928;2024-02-14T14:50:14;2.90;;;0.40;;
5343;SDS011;2694;48.954;8.928;2024-02-14T14:52:45;1.40;;;0.40;;
5343;SDS011;2694;48.954;8.928;2024-02-14T14:55:12;4.13;;;3.08;;
5343;SDS011;2694;48.954;8.928;2024-02-14T14:57:41;1.60;;;1.13;;
5343;SDS011;2694;48.954;8.928;2024-02-14T15:00:08;4.90;;;2.08;;
5343;SDS011;2694;48.954;8.928;2024-02-14T15:02:37;13.98;;;10.73;;
5343;SDS011;2694;48.954;8.928;2024-02-14T15:05:07;32.45;;;23.13;;
5343;SDS011;2694;48.954;8.928;2024-02-14T15:07:37;62.65;;;46.40;;
5343;SDS011;2694;48.954;8.928;2024-02-14T15:10:07;87.55;;;46.05;;
5343;SDS011;2694;48.954;8.928;2024-02-14T15:12:36;8.80;;;3.40;;
5343;SDS011;2694;48.954;8.928;2024-02-14T15:15:04;2.08;;;0.80;;
5343;SDS011;2694;48.954;8.928;2024-02-14T15:17:31;2.00;;;0.80;;
5343;SDS011;2694;48.954;8.928;2024-02-14T15:19:58;4.40;;;1.60;;